RKPK/PUS METAR and TAF weather

Enter ICAO airport designator
Station Type Date Time Source
RKPK METAR 2022/11/30 16:00 UTC NOAA

RKPK 301600Z 34015KT CAVOK 00/M20 Q1030


Station Type Date Time Source
RKPK Decoded METAR 2022/11/30 16:00 UTC NOAA

Pusan / Kimhae International Airport, Korea, South (RKPK) 35-11N 128-56E 6M
Nov 30, 2022 - 11:00 AM EST / 2022.11.30 1600 UTC
Wind: from the NNW (340 degrees) at 17 MPH (15 KT):0
Visibility: greater than 7 mile(s):0
Temperature: 32 F (0 C)
Windchill: 21 F (-6 C):1
Dew Point: -4 F (-20 C)
Relative Humidity: 20%
Pressure (altimeter): 30.42 in. Hg (1030 hPa)
ob: RKPK 301600Z 34015KT CAVOK 00/M20 Q1030
cycle: 16

Station Type Date Time Source
RKPK TAF 2022/11/30 12:21 UTC NOAA

TAF TAF RKPK 301100Z 3012/0118 36012KT CAVOK TNM03/3021Z TX05/0106Z
BECMG 3023/3024 33008KT

Example: see airport list